sensor_id;sensor_type;location;lat;lon;timestamp;pressure;altitude;pressure_sealevel;temperature;humidity
21276;BME280;36472;52.170;20.884;2023-11-19T00:02:07;101105.13;;;3.25;87.59
21276;BME280;36472;52.170;20.884;2023-11-19T00:04:37;101107.66;;;3.28;87.78
21276;BME280;36472;52.170;20.884;2023-11-19T00:07:07;101105.94;;;3.27;86.84
21276;BME280;36472;52.170;20.884;2023-11-19T00:09:38;101107.72;;;3.25;86.69
21276;BME280;36472;52.170;20.884;2023-11-19T00:12:07;101115.59;;;3.22;87.00
21276;BME280;36472;52.170;20.884;2023-11-19T00:14:38;101126.00;;;3.21;86.96
21276;BME280;36472;52.170;20.884;2023-11-19T00:17:06;101117.47;;;3.15;87.37
21276;BME280;36472;52.170;20.884;2023-11-19T00:19:35;101116.56;;;3.18;88.11
21276;BME280;36472;52.170;20.884;2023-11-19T00:22:04;101100.97;;;3.18;87.87
21276;BME280;36472;52.170;20.884;2023-11-19T00:24:33;101101.72;;;3.23;87.40
21276;BME280;36472;52.170;20.884;2023-11-19T00:27:03;101088.88;;;3.17;87.20
21276;BME280;36472;52.170;20.884;2023-11-19T00:29:32;101090.63;;;3.16;86.70
21276;BME280;36472;52.170;20.884;2023-11-19T00:32:03;101085.34;;;3.20;87.04
21276;BME280;36472;52.170;20.884;2023-11-19T00:34:33;101092.25;;;3.21;87.04
21276;BME280;36472;52.170;20.884;2023-11-19T00:37:02;101087.81;;;3.24;87.62
21276;BME280;36472;52.170;20.884;2023-11-19T00:39:32;101080.00;;;3.26;87.78
21276;BME280;36472;52.170;20.884;2023-11-19T00:42:01;101071.50;;;3.19;87.84
21276;BME280;36472;52.170;20.884;2023-11-19T00:44:30;101070.56;;;3.23;87.62
21276;BME280;36472;52.170;20.884;2023-11-19T00:46:59;101071.53;;;3.17;87.71
21276;BME280;36472;52.170;20.884;2023-11-19T00:49:30;101066.22;;;3.22;87.77
21276;BME280;36472;52.170;20.884;2023-11-19T00:52:00;101059.28;;;3.23;87.14
21276;BME280;36472;52.170;20.884;2023-11-19T00:54:30;101056.69;;;3.23;87.86
21276;BME280;36472;52.170;20.884;2023-11-19T00:56:59;101051.53;;;3.21;87.57
21276;BME280;36472;52.170;20.884;2023-11-19T00:59:29;101041.13;;;3.21;87.20
21276;BME280;36472;52.170;20.884;2023-11-19T01:01:58;101037.63;;;3.24;87.00
21276;BME280;36472;52.170;20.884;2023-11-19T01:04:35;101026.38;;;3.23;86.86
21276;BME280;36472;52.170;20.884;2023-11-19T01:07:05;101022.88;;;3.24;86.86
21276;BME280;36472;52.170;20.884;2023-11-19T01:09:34;101022.03;;;3.24;87.80
21276;BME280;36472;52.170;20.884;2023-11-19T01:12:05;101027.22;;;3.24;87.19
21276;BME280;36472;52.170;20.884;2023-11-19T01:14:34;101015.91;;;3.26;87.15
21276;BME280;36472;52.170;20.884;2023-11-19T01:17:04;101002.16;;;3.21;86.77
21276;BME280;36472;52.170;20.884;2023-11-19T01:19:36;101002.13;;;3.23;86.97
21276;BME280;36472;52.170;20.884;2023-11-19T01:22:05;101000.38;;;3.25;87.10
21276;BME280;36472;52.170;20.884;2023-11-19T01:24:34;100999.34;;;3.30;87.04
21276;BME280;36472;52.170;20.884;2023-11-19T01:27:04;101004.56;;;3.30;86.88
21276;BME280;36472;52.170;20.884;2023-11-19T01:29:33;101010.63;;;3.29;86.60
21276;BME280;36472;52.170;20.884;2023-11-19T01:32:02;101012.41;;;3.27;87.25
21276;BME280;36472;52.170;20.884;2023-11-19T01:34:31;101015.81;;;3.29;86.78
21276;BME280;36472;52.170;20.884;2023-11-19T01:37:01;101012.38;;;3.29;86.69
21276;BME280;36472;52.170;20.884;2023-11-19T01:39:30;101010.56;;;3.32;86.42
21276;BME280;36472;52.170;20.884;2023-11-19T01:41:59;101001.06;;;3.31;86.72
21276;BME280;36472;52.170;20.884;2023-11-19T01:44:28;100992.38;;;3.32;86.75
21276;BME280;36472;52.170;20.884;2023-11-19T01:46:57;100990.63;;;3.33;87.11
21276;BME280;36472;52.170;20.884;2023-11-19T01:49:27;100981.09;;;3.33;86.73
21276;BME280;36472;52.170;20.884;2023-11-19T01:51:57;100974.09;;;3.35;86.53
21276;BME280;36472;52.170;20.884;2023-11-19T01:54:28;100975.75;;;3.38;86.51
21276;BME280;36472;52.170;20.884;2023-11-19T01:56:57;100981.81;;;3.39;86.04
21276;BME280;36472;52.170;20.884;2023-11-19T01:59:26;100974.09;;;3.35;86.29
21276;BME280;36472;52.170;20.884;2023-11-19T02:01:55;100969.91;;;3.31;86.97
21276;BME280;36472;52.170;20.884;2023-11-19T02:04:27;100967.31;;;3.31;86.35
21276;BME280;36472;52.170;20.884;2023-11-19T02:06:58;100965.72;;;3.24;86.76
21276;BME280;36472;52.170;20.884;2023-11-19T02:09:29;100954.50;;;3.24;86.85
21276;BME280;36472;52.170;20.884;2023-11-19T02:11:58;100961.47;;;3.22;87.49
21276;BME280;36472;52.170;20.884;2023-11-19T02:14:27;100958.91;;;3.20;87.22
21276;BME280;36472;52.170;20.884;2023-11-19T02:16:56;100953.03;;;2.77;89.05
21276;BME280;36472;52.170;20.884;2023-11-19T02:19:25;100947.47;;;2.93;89.01
21276;BME280;36472;52.170;20.884;2023-11-19T02:21:54;100938.84;;;2.92;88.74
21276;BME280;36472;52.170;20.884;2023-11-19T02:24:26;100932.63;;;2.98;88.92
21276;BME280;36472;52.170;20.884;2023-11-19T02:27:09;100935.13;;;3.03;88.65
21276;BME280;36472;52.170;20.884;2023-11-19T02:29:40;100941.03;;;3.09;88.12
21276;BME280;36472;52.170;20.884;2023-11-19T02:32:10;100940.94;;;3.11;87.62
21276;BME280;36472;52.170;20.884;2023-11-19T02:34:41;100937.69;;;3.04;87.67
21276;BME280;36472;52.170;20.884;2023-11-19T02:37:10;100924.81;;;2.99;88.01
21276;BME280;36472;52.170;20.884;2023-11-19T02:39:40;100928.53;;;2.89;88.03
21276;BME280;36472;52.170;20.884;2023-11-19T02:42:10;100928.47;;;2.92;87.56
21276;BME280;36472;52.170;20.884;2023-11-19T02:44:44;100937.94;;;2.93;87.95
21276;BME280;36472;52.170;20.884;2023-11-19T02:47:13;100919.59;;;3.01;87.99
21276;BME280;36472;52.170;20.884;2023-11-19T02:49:42;100911.88;;;2.98;87.77
21276;BME280;36472;52.170;20.884;2023-11-19T02:52:11;100900.09;;;2.85;88.02
21276;BME280;36472;52.170;20.884;2023-11-19T02:54:42;100896.66;;;2.48;88.76
21276;BME280;36472;52.170;20.884;2023-11-19T02:57:11;100889.91;;;2.77;88.14
21276;BME280;36472;52.170;20.884;2023-11-19T02:59:50;100886.22;;;2.86;88.46
21276;BME280;36472;52.170;20.884;2023-11-19T03:02:19;100886.25;;;2.84;89.08
21276;BME280;36472;52.170;20.884;2023-11-19T03:04:48;100882.00;;;2.80;88.99
21276;BME280;36472;52.170;20.884;2023-11-19T03:07:17;100878.66;;;2.76;88.00
21276;BME280;36472;52.170;20.884;2023-11-19T03:09:46;100871.78;;;2.75;88.46
21276;BME280;36472;52.170;20.884;2023-11-19T03:12:17;100863.34;;;2.66;88.97
21276;BME280;36472;52.170;20.884;2023-11-19T03:14:46;100863.94;;;2.77;89.34
21276;BME280;36472;52.170;20.884;2023-11-19T03:17:17;100857.81;;;2.79;89.33
21276;BME280;36472;52.170;20.884;2023-11-19T03:19:46;100850.72;;;2.86;89.34
21276;BME280;36472;52.170;20.884;2023-11-19T03:22:16;100854.94;;;2.90;89.28
21276;BME280;36472;52.170;20.884;2023-11-19T03:24:45;100857.59;;;2.89;88.31
21276;BME280;36472;52.170;20.884;2023-11-19T03:27:14;100842.59;;;2.66;89.10
21276;BME280;36472;52.170;20.884;2023-11-19T03:29:44;100840.97;;;2.61;89.40
21276;BME280;36472;52.170;20.884;2023-11-19T03:32:13;100844.41;;;2.62;89.56
21276;BME280;36472;52.170;20.884;2023-11-19T03:34:44;100847.78;;;2.66;89.63
21276;BME280;36472;52.170;20.884;2023-11-19T03:37:13;100834.75;;;2.67;89.95
21276;BME280;36472;52.170;20.884;2023-11-19T03:39:44;100830.19;;;2.77;89.99
21276;BME280;36472;52.170;20.884;2023-11-19T03:42:13;100825.69;;;2.49;89.92
21276;BME280;36472;52.170;20.884;2023-11-19T03:44:42;100822.44;;;2.75;89.83
21276;BME280;36472;52.170;20.884;2023-11-19T03:47:11;100824.91;;;2.80;89.76
21276;BME280;36472;52.170;20.884;2023-11-19T03:49:40;100823.19;;;2.80;89.26
21276;BME280;36472;52.170;20.884;2023-11-19T03:52:11;100815.34;;;2.82;89.77
21276;BME280;36472;52.170;20.884;2023-11-19T03:54:47;100816.16;;;2.84;89.06
21276;BME280;36472;52.170;20.884;2023-11-19T03:57:16;100810.78;;;2.90;88.84
21276;BME280;36472;52.170;20.884;2023-11-19T03:59:46;100796.09;;;2.91;88.66
21276;BME280;36472;52.170;20.884;2023-11-19T04:02:16;100789.09;;;2.93;88.63
21276;BME280;36472;52.170;20.884;2023-11-19T04:04:45;100793.53;;;2.89;88.38
21276;BME280;36472;52.170;20.884;2023-11-19T04:07:15;100796.88;;;2.93;88.30
21276;BME280;36472;52.170;20.884;2023-11-19T04:09:44;100785.66;;;2.92;88.63
21276;BME280;36472;52.170;20.884;2023-11-19T04:12:14;100783.13;;;2.89;88.70
21276;BME280;36472;52.170;20.884;2023-11-19T04:14:43;100777.22;;;2.84;88.69
21276;BME280;36472;52.170;20.884;2023-11-19T04:17:12;100770.31;;;2.83;89.08
21276;BME280;36472;52.170;20.884;2023-11-19T04:19:41;100765.19;;;2.80;88.74
21276;BME280;36472;52.170;20.884;2023-11-19T04:22:10;100769.44;;;2.84;89.28
21276;BME280;36472;52.170;20.884;2023-11-19T04:24:41;100763.50;;;2.79;89.21
21276;BME280;36472;52.170;20.884;2023-11-19T04:27:11;100750.56;;;2.77;89.84
21276;BME280;36472;52.170;20.884;2023-11-19T04:29:40;100749.78;;;2.75;89.97
21276;BME280;36472;52.170;20.884;2023-11-19T04:32:09;100750.66;;;2.74;89.70
21276;BME280;36472;52.170;20.884;2023-11-19T04:34:38;100748.81;;;2.78;89.84
21276;BME280;36472;52.170;20.884;2023-11-19T04:37:07;100741.25;;;2.70;89.47
21276;BME280;36472;52.170;20.884;2023-11-19T04:39:44;100739.44;;;2.74;89.45
21276;BME280;36472;52.170;20.884;2023-11-19T04:42:13;100741.19;;;2.73;89.31
21276;BME280;36472;52.170;20.884;2023-11-19T04:44:45;100743.97;;;2.66;89.70
21276;BME280;36472;52.170;20.884;2023-11-19T04:47:14;100739.59;;;2.68;89.41
21276;BME280;36472;52.170;20.884;2023-11-19T04:49:43;100738.00;;;2.62;89.50
21276;BME280;36472;52.170;20.884;2023-11-19T04:52:12;100738.16;;;2.56;90.14
21276;BME280;36472;52.170;20.884;2023-11-19T04:54:43;100727.66;;;2.60;90.12
21276;BME280;36472;52.170;20.884;2023-11-19T04:57:12;100723.13;;;2.69;90.52
21276;BME280;36472;52.170;20.884;2023-11-19T04:59:41;100719.84;;;2.62;90.10
21276;BME280;36472;52.170;20.884;2023-11-19T05:02:10;100709.53;;;2.59;90.38
21276;BME280;36472;52.170;20.884;2023-11-19T05:04:42;100717.75;;;2.75;89.92
21276;BME280;36472;52.170;20.884;2023-11-19T05:07:12;100716.09;;;2.72;89.22
21276;BME280;36472;52.170;20.884;2023-11-19T05:09:41;100710.34;;;2.61;89.44
21276;BME280;36472;52.170;20.884;2023-11-19T05:12:12;100705.91;;;2.65;90.04
21276;BME280;36472;52.170;20.884;2023-11-19T05:14:41;100702.38;;;2.69;89.99
21276;BME280;36472;52.170;20.884;2023-11-19T05:17:16;100698.78;;;2.73;89.81
21276;BME280;36472;52.170;20.884;2023-11-19T05:19:45;100692.88;;;2.68;89.60
21276;BME280;36472;52.170;20.884;2023-11-19T05:22:17;100693.75;;;2.68;89.97
21276;BME280;36472;52.170;20.884;2023-11-19T05:24:48;100688.47;;;2.70;90.58
21276;BME280;36472;52.170;20.884;2023-11-19T05:27:19;100689.41;;;2.69;90.22
21276;BME280;36472;52.170;20.884;2023-11-19T05:29:48;100688.41;;;2.73;90.40
21276;BME280;36472;52.170;20.884;2023-11-19T05:32:17;100677.25;;;2.69;90.53
21276;BME280;36472;52.170;20.884;2023-11-19T05:34:45;100683.94;;;2.47;90.52
21276;BME280;36472;52.170;20.884;2023-11-19T05:37:18;100677.59;;;2.57;91.00
21276;BME280;36472;52.170;20.884;2023-11-19T05:39:47;100676.56;;;2.62;90.78
21276;BME280;36472;52.170;20.884;2023-11-19T05:42:16;100684.41;;;2.61;90.11
21276;BME280;36472;52.170;20.884;2023-11-19T05:44:46;100683.81;;;2.51;89.56
21276;BME280;36472;52.170;20.884;2023-11-19T05:47:16;100671.81;;;2.47;91.10
21276;BME280;36472;52.170;20.884;2023-11-19T05:49:45;100660.56;;;2.48;91.07
21276;BME280;36472;52.170;20.884;2023-11-19T05:52:14;100663.00;;;2.53;91.64
21276;BME280;36472;52.170;20.884;2023-11-19T05:54:43;100664.75;;;2.52;91.40
21276;BME280;36472;52.170;20.884;2023-11-19T05:57:12;100674.47;;;2.44;91.08
21276;BME280;36472;52.170;20.884;2023-11-19T05:59:41;100677.72;;;2.52;91.18
21276;BME280;36472;52.170;20.884;2023-11-19T06:02:13;100673.69;;;2.42;91.09
21276;BME280;36472;52.170;20.884;2023-11-19T06:04:41;100673.16;;;2.29;90.71
21276;BME280;36472;52.170;20.884;2023-11-19T06:07:12;100666.91;;;2.36;91.53
21276;BME280;36472;52.170;20.884;2023-11-19T06:09:40;100645.13;;;2.11;91.41
21276;BME280;36472;52.170;20.884;2023-11-19T06:12:10;100669.34;;;2.10;92.36
21276;BME280;36472;52.170;20.884;2023-11-19T06:14:40;100667.28;;;2.22;90.52
21276;BME280;36472;52.170;20.884;2023-11-19T06:17:09;100667.44;;;2.16;90.83
21276;BME280;36472;52.170;20.884;2023-11-19T06:19:40;100658.31;;;2.36;90.81
21276;BME280;36472;52.170;20.884;2023-11-19T06:22:09;100663.56;;;2.33;90.76
21276;BME280;36472;52.170;20.884;2023-11-19T06:24:38;100654.88;;;2.34;90.96
21276;BME280;36472;52.170;20.884;2023-11-19T06:27:08;100647.75;;;2.42;90.52
21276;BME280;36472;52.170;20.884;2023-11-19T06:29:38;100646.91;;;2.41;90.09
21276;BME280;36472;52.170;20.884;2023-11-19T06:32:08;100639.19;;;2.38;90.94
21276;BME280;36472;52.170;20.884;2023-11-19T06:34:41;100631.91;;;2.20;91.06
21276;BME280;36472;52.170;20.884;2023-11-19T06:37:11;100629.22;;;2.23;90.48
21276;BME280;36472;52.170;20.884;2023-11-19T06:39:39;100621.53;;;2.20;91.18
21276;BME280;36472;52.170;20.884;2023-11-19T06:42:09;100626.22;;;2.07;91.26
21276;BME280;36472;52.170;20.884;2023-11-19T06:44:38;100628.66;;;2.12;89.90
21276;BME280;36472;52.170;20.884;2023-11-19T06:47:07;100624.31;;;2.14;89.31
21276;BME280;36472;52.170;20.884;2023-11-19T06:49:36;100619.88;;;2.17;89.07
21276;BME280;36472;52.170;20.884;2023-11-19T06:52:06;100609.34;;;1.91;90.30
21276;BME280;36472;52.170;20.884;2023-11-19T06:54:36;100610.28;;;1.88;90.32
21276;BME280;36472;52.170;20.884;2023-11-19T06:57:05;100603.44;;;1.85;89.59
21276;BME280;36472;52.170;20.884;2023-11-19T06:59:34;100600.66;;;1.93;90.39
21276;BME280;36472;52.170;20.884;2023-11-19T07:02:03;100600.53;;;1.96;90.02
21276;BME280;36472;52.170;20.884;2023-11-19T07:04:33;100598.34;;;1.81;90.77
21276;BME280;36472;52.170;20.884;2023-11-19T07:07:03;100601.53;;;1.92;90.19
21276;BME280;36472;52.170;20.884;2023-11-19T07:09:34;100592.59;;;2.04;88.88
21276;BME280;36472;52.170;20.884;2023-11-19T07:12:04;100588.13;;;2.09;88.90
21276;BME280;36472;52.170;20.884;2023-11-19T07:14:33;100587.25;;;2.10;89.59
21276;BME280;36472;52.170;20.884;2023-11-19T07:17:03;100583.44;;;2.22;89.23
21276;BME280;36472;52.170;20.884;2023-11-19T07:19:32;100582.91;;;2.11;88.71
21276;BME280;36472;52.170;20.884;2023-11-19T07:22:04;100590.59;;;2.14;89.05
21276;BME280;36472;52.170;20.884;2023-11-19T07:24:35;100583.34;;;2.25;89.13
21276;BME280;36472;52.170;20.884;2023-11-19T07:27:04;100574.50;;;2.32;88.47
21276;BME280;36472;52.170;20.884;2023-11-19T07:29:34;100570.72;;;2.44;88.49
21276;BME280;36472;52.170;20.884;2023-11-19T07:32:06;100572.91;;;2.28;88.78
21276;BME280;36472;52.170;20.884;2023-11-19T07:34:36;100567.50;;;2.36;88.67
21276;BME280;36472;52.170;20.884;2023-11-19T07:37:05;100572.31;;;2.50;88.74
21276;BME280;36472;52.170;20.884;2023-11-19T07:39:36;100560.28;;;2.46;88.38
21276;BME280;36472;52.170;20.884;2023-11-19T07:42:09;100558.63;;;2.45;87.76
21276;BME280;36472;52.170;20.884;2023-11-19T07:44:38;100550.59;;;2.52;88.37
21276;BME280;36472;52.170;20.884;2023-11-19T07:47:07;100543.19;;;2.40;88.78
21276;BME280;36472;52.170;20.884;2023-11-19T07:49:36;100542.06;;;2.49;88.03
21276;BME280;36472;52.170;20.884;2023-11-19T07:52:06;100539.31;;;2.53;88.25
21276;BME280;36472;52.170;20.884;2023-11-19T07:54:50;100532.66;;;2.45;88.85
21276;BME280;36472;52.170;20.884;2023-11-19T07:57:19;100529.78;;;2.54;88.88
21276;BME280;36472;52.170;20.884;2023-11-19T07:59:48;100535.31;;;2.43;88.67
21276;BME280;36472;52.170;20.884;2023-11-19T08:02:18;100527.88;;;2.60;88.23
21276;BME280;36472;52.170;20.884;2023-11-19T08:04:47;100515.28;;;2.48;88.36
21276;BME280;36472;52.170;20.884;2023-11-19T08:07:19;100513.22;;;2.58;87.84
21276;BME280;36472;52.170;20.884;2023-11-19T08:09:49;100515.69;;;2.62;87.76
21276;BME280;36472;52.170;20.884;2023-11-19T08:12:19;100517.09;;;2.45;87.84
21276;BME280;36472;52.170;20.884;2023-11-19T08:14:47;100521.59;;;2.39;88.46
21276;BME280;36472;52.170;20.884;2023-11-19T08:17:17;100520.88;;;2.03;89.45
21276;BME280;36472;52.170;20.884;2023-11-19T08:19:45;100513.94;;;2.35;90.17
21276;BME280;36472;52.170;20.884;2023-11-19T08:22:15;100503.72;;;2.58;89.49
21276;BME280;36472;52.170;20.884;2023-11-19T08:24:44;100493.38;;;2.57;89.00
21276;BME280;36472;52.170;20.884;2023-11-19T08:27:14;100486.16;;;2.67;89.18
21276;BME280;36472;52.170;20.884;2023-11-19T08:29:43;100482.47;;;2.74;88.03
21276;BME280;36472;52.170;20.884;2023-11-19T08:32:12;100493.94;;;2.67;88.37
21276;BME280;36472;52.170;20.884;2023-11-19T08:34:41;100488.44;;;2.48;88.55
21276;BME280;36472;52.170;20.884;2023-11-19T08:37:10;100495.00;;;2.59;89.35
21276;BME280;36472;52.170;20.884;2023-11-19T08:39:40;100476.25;;;2.51;89.75
21276;BME280;36472;52.170;20.884;2023-11-19T08:42:10;100472.94;;;2.74;89.35
21276;BME280;36472;52.170;20.884;2023-11-19T08:44:40;100485.63;;;2.84;88.38
21276;BME280;36472;52.170;20.884;2023-11-19T08:47:11;100478.53;;;2.62;89.10
21276;BME280;36472;52.170;20.884;2023-11-19T08:49:40;100471.78;;;2.83;87.78
21276;BME280;36472;52.170;20.884;2023-11-19T08:52:10;100469.44;;;2.47;89.19
21276;BME280;36472;52.170;20.884;2023-11-19T08:54:42;100462.00;;;2.65;88.73
21276;BME280;36472;52.170;20.884;2023-11-19T08:57:11;100464.34;;;2.72;88.34
21276;BME280;36472;52.170;20.884;2023-11-19T08:59:42;100464.44;;;2.69;88.90
21276;BME280;36472;52.170;20.884;2023-11-19T09:02:11;100462.19;;;2.85;89.49
21276;BME280;36472;52.170;20.884;2023-11-19T09:04:40;100447.28;;;2.92;88.65
21276;BME280;36472;52.170;20.884;2023-11-19T09:07:09;100444.34;;;2.76;88.91
21276;BME280;36472;52.170;20.884;2023-11-19T09:09:38;100441.50;;;2.84;88.26
21276;BME280;36472;52.170;20.884;2023-11-19T09:12:08;100434.47;;;2.87;87.81
21276;BME280;36472;52.170;20.884;2023-11-19T09:14:36;100418.19;;;2.55;89.60
21276;BME280;36472;52.170;20.884;2023-11-19T09:17:07;100422.84;;;2.44;89.81
21276;BME280;36472;52.170;20.884;2023-11-19T09:19:37;100413.69;;;2.32;89.96
21276;BME280;36472;52.170;20.884;2023-11-19T09:22:06;100410.09;;;2.38;90.99
21276;BME280;36472;52.170;20.884;2023-11-19T09:24:35;100405.03;;;2.61;90.89
21276;BME280;36472;52.170;20.884;2023-11-19T09:27:04;100403.63;;;2.23;91.00
21276;BME280;36472;52.170;20.884;2023-11-19T09:29:34;100406.75;;;2.61;90.36
21276;BME280;36472;52.170;20.884;2023-11-19T09:32:07;100400.41;;;1.86;91.78
21276;BME280;36472;52.170;20.884;2023-11-19T09:34:36;100392.91;;;2.34;92.45
21276;BME280;36472;52.170;20.884;2023-11-19T09:37:05;100394.81;;;2.55;91.36
21276;BME280;36472;52.170;20.884;2023-11-19T09:39:48;100395.88;;;2.50;91.09
21276;BME280;36472;52.170;20.884;2023-11-19T09:42:18;100391.72;;;2.44;91.83
21276;BME280;36472;52.170;20.884;2023-11-19T09:44:48;100385.44;;;2.24;91.53
21276;BME280;36472;52.170;20.884;2023-11-19T09:47:19;100385.38;;;2.26;91.90
21276;BME280;36472;52.170;20.884;2023-11-19T09:49:49;100378.47;;;2.53;90.61
21276;BME280;36472;52.170;20.884;2023-11-19T09:52:19;100383.44;;;2.59;90.61
21276;BME280;36472;52.170;20.884;2023-11-19T09:54:48;100378.44;;;2.55;90.44
21276;BME280;36472;52.170;20.884;2023-11-19T09:57:17;100374.97;;;2.81;90.47
21276;BME280;36472;52.170;20.884;2023-11-19T09:59:47;100365.44;;;2.55;90.57
21276;BME280;36472;52.170;20.884;2023-11-19T10:02:18;100359.00;;;2.67;90.97
21276;BME280;36472;52.170;20.884;2023-11-19T10:04:49;100357.81;;;2.50;91.03
21276;BME280;36472;52.170;20.884;2023-11-19T10:07:20;100353.50;;;2.76;90.02
21276;BME280;36472;52.170;20.884;2023-11-19T10:09:53;100355.09;;;2.80;90.08
21276;BME280;36472;52.170;20.884;2023-11-19T10:12:22;100350.03;;;2.77;90.34
21276;BME280;36472;52.170;20.884;2023-11-19T10:14:51;100340.63;;;2.73;89.90
21276;BME280;36472;52.170;20.884;2023-11-19T10:17:22;100334.72;;;2.94;89.37
21276;BME280;36472;52.170;20.884;2023-11-19T10:19:51;100329.19;;;3.04;90.24
21276;BME280;36472;52.170;20.884;2023-11-19T10:22:22;100322.00;;;2.61;89.94
21276;BME280;36472;52.170;20.884;2023-11-19T10:24:51;100325.75;;;2.78;89.14
21276;BME280;36472;52.170;20.884;2023-11-19T10:27:24;100330.34;;;2.16;91.54
21276;BME280;36472;52.170;20.884;2023-11-19T10:29:54;100322.78;;;2.37;91.78
21276;BME280;36472;52.170;20.884;2023-11-19T10:32:24;100319.69;;;2.52;91.12
21276;BME280;36472;52.170;20.884;2023-11-19T10:35:05;100310.59;;;2.66;90.60
21276;BME280;36472;52.170;20.884;2023-11-19T10:37:35;100303.50;;;2.71;90.61
21276;BME280;36472;52.170;20.884;2023-11-19T10:40:07;100302.94;;;2.36;92.02
21276;BME280;36472;52.170;20.884;2023-11-19T10:42:38;100296.75;;;2.67;91.48
21276;BME280;36472;52.170;20.884;2023-11-19T10:45:22;100289.75;;;2.69;91.16
21276;BME280;36472;52.170;20.884;2023-11-19T10:47:55;100290.00;;;2.61;91.75
21276;BME280;36472;52.170;20.884;2023-11-19T10:50:25;100282.16;;;2.88;91.35
21276;BME280;36472;52.170;20.884;2023-11-19T10:52:57;100272.84;;;2.82;90.81
21276;BME280;36472;52.170;20.884;2023-11-19T10:55:29;100261.19;;;2.69;90.58
21276;BME280;36472;52.170;20.884;2023-11-19T10:58:01;100259.28;;;2.74;90.99
21276;BME280;36472;52.170;20.884;2023-11-19T11:00:38;100254.69;;;2.82;90.66
21276;BME280;36472;52.170;20.884;2023-11-19T11:03:16;100246.06;;;2.56;91.63
21276;BME280;36472;52.170;20.884;2023-11-19T11:05:48;100248.22;;;2.69;90.81
21276;BME280;36472;52.170;20.884;2023-11-19T11:08:18;100229.81;;;2.75;91.64
21276;BME280;36472;52.170;20.884;2023-11-19T11:10:53;100225.59;;;2.72;90.43
21276;BME280;36472;52.170;20.884;2023-11-19T11:13:26;100224.03;;;2.68;90.97
21276;BME280;36472;52.170;20.884;2023-11-19T11:15:58;100214.59;;;2.66;91.34
21276;BME280;36472;52.170;20.884;2023-11-19T11:18:29;100207.59;;;2.68;91.21
21276;BME280;36472;52.170;20.884;2023-11-19T11:21:04;100207.28;;;2.77;91.54
21276;BME280;36472;52.170;20.884;2023-11-19T11:27:32;100186.34;;;2.33;93.06
21276;BME280;36472;52.170;20.884;2023-11-19T11:30:20;100178.03;;;2.48;92.47
21276;BME280;36472;52.170;20.884;2023-11-19T11:33:15;100167.53;;;2.75;91.28
21276;BME280;36472;52.170;20.884;2023-11-19T11:36:04;100172.34;;;2.62;92.29
21276;BME280;36472;52.170;20.884;2023-11-19T11:38:37;100158.06;;;2.50;92.88
21276;BME280;36472;52.170;20.884;2023-11-19T11:41:17;100160.44;;;2.56;92.66
21276;BME280;36472;52.170;20.884;2023-11-19T11:43:48;100157.28;;;2.72;91.45
21276;BME280;36472;52.170;20.884;2023-11-19T11:46:55;100149.25;;;2.78;91.52
21276;BME280;36472;52.170;20.884;2023-11-19T11:49:27;100125.84;;;2.56;92.25
21276;BME280;36472;52.170;20.884;2023-11-19T11:52:01;100147.44;;;2.80;91.54
21276;BME280;36472;52.170;20.884;2023-11-19T11:54:32;100133.63;;;2.56;92.27
21276;BME280;36472;52.170;20.884;2023-11-19T11:57:10;100133.63;;;2.79;91.29
21276;BME280;36472;52.170;20.884;2023-11-19T11:59:49;100129.59;;;2.72;92.25
21276;BME280;36472;52.170;20.884;2023-11-19T12:02:21;100117.84;;;2.86;91.92
21276;BME280;36472;52.170;20.884;2023-11-19T12:04:52;100116.81;;;2.90;91.47
21276;BME280;36472;52.170;20.884;2023-11-19T12:07:24;100111.38;;;2.74;91.85
21276;BME280;36472;52.170;20.884;2023-11-19T12:10:06;100106.00;;;2.78;91.88
21276;BME280;36472;52.170;20.884;2023-11-19T12:12:36;100101.53;;;2.82;91.62
21276;BME280;36472;52.170;20.884;2023-11-19T12:15:08;100094.22;;;2.92;91.40
21276;BME280;36472;52.170;20.884;2023-11-19T12:17:51;100081.22;;;2.70;92.27
21276;BME280;36472;52.170;20.884;2023-11-19T12:20:22;100088.78;;;2.76;91.83
21276;BME280;36472;52.170;20.884;2023-11-19T12:22:55;100087.59;;;2.61;91.93
21276;BME280;36472;52.170;20.884;2023-11-19T12:25:25;100085.53;;;2.71;91.66
21276;BME280;36472;52.170;20.884;2023-11-19T12:27:54;100078.91;;;2.86;90.99
21276;BME280;36472;52.170;20.884;2023-11-19T12:30:25;100070.81;;;2.93;91.91
21276;BME280;36472;52.170;20.884;2023-11-19T12:32:55;100070.41;;;2.82;92.27
21276;BME280;36472;52.170;20.884;2023-11-19T12:35:24;100062.19;;;2.93;91.64
21276;BME280;36472;52.170;20.884;2023-11-19T12:37:55;100066.78;;;2.86;92.06
21276;BME280;36472;52.170;20.884;2023-11-19T12:40:25;100067.75;;;2.84;91.71
21276;BME280;36472;52.170;20.884;2023-11-19T12:42:57;100068.13;;;2.73;92.41
21276;BME280;36472;52.170;20.884;2023-11-19T12:45:35;100064.53;;;2.77;92.15
21276;BME280;36472;52.170;20.884;2023-11-19T12:48:08;100065.13;;;2.38;92.24
21276;BME280;36472;52.170;20.884;2023-11-19T12:50:51;100062.69;;;2.57;92.24
21276;BME280;36472;52.170;20.884;2023-11-19T12:53:24;100065.16;;;2.84;92.71
21276;BME280;36472;52.170;20.884;2023-11-19T12:55:54;100063.44;;;2.83;91.89
21276;BME280;36472;52.170;20.884;2023-11-19T12:58:30;100062.53;;;2.61;92.93
21276;BME280;36472;52.170;20.884;2023-11-19T13:01:01;100059.47;;;2.74;92.56
21276;BME280;36472;52.170;20.884;2023-11-19T13:03:31;100057.91;;;2.46;93.33
21276;BME280;36472;52.170;20.884;2023-11-19T13:06:04;100050.22;;;2.67;93.50
21276;BME280;36472;52.170;20.884;2023-11-19T13:08:38;100037.78;;;2.75;92.85
21276;BME280;36472;52.170;20.884;2023-11-19T13:11:08;100034.47;;;2.48;93.58
21276;BME280;36472;52.170;20.884;2023-11-19T13:13:57;100028.50;;;2.69;93.44